createdAt,value
2019-02-17T00:00:23.233Z,99.25
2019-02-17T00:01:33.283Z,99.25
2019-02-17T00:02:43.380Z,99.34
2019-02-17T00:03:53.476Z,99.34
2019-02-17T00:05:05.392Z,99.34
2019-02-17T00:06:15.205Z,99.34
2019-02-17T00:07:25.289Z,99.34
2019-02-17T00:08:35.153Z,99.34
2019-02-17T00:09:45.211Z,99.34
2019-02-17T00:10:55.267Z,99.34
2019-02-17T00:12:05.355Z,99.25
2019-02-17T00:13:15.423Z,99.34
2019-02-17T00:14:26.434Z,99.25
2019-02-17T00:15:35.985Z,99.44
2019-02-17T00:16:46.096Z,99.44
2019-02-17T00:17:56.153Z,99.34
2019-02-17T00:19:05.958Z,99.34
2019-02-17T00:20:16.021Z,99.25
2019-02-17T00:21:26.093Z,99.25
2019-02-17T00:22:36.159Z,99.34
2019-02-17T00:23:46.203Z,99.96
2019-02-17T00:24:56.009Z,99.77
2019-02-17T00:26:06.760Z,99.53
2019-02-17T00:27:16.847Z,99.29
2019-02-17T00:28:26.985Z,99.34
2019-02-17T00:29:37.055Z,99.29
2019-02-17T00:30:47.123Z,99.48
2019-02-17T00:31:56.912Z,99.44
2019-02-17T00:33:06.725Z,99.2
2019-02-17T00:34:16.796Z,99.48
2019-02-17T00:35:26.868Z,99.39
2019-02-17T00:36:36.913Z,99.34
2019-02-17T00:37:46.762Z,99.29
2019-02-17T00:38:56.845Z,99.29
2019-02-17T00:40:06.917Z,99.29
2019-02-17T00:41:17.206Z,99.29
2019-02-17T00:42:27.262Z,99.39
2019-02-17T00:43:37.536Z,99.2
2019-02-17T00:44:47.351Z,99.29
2019-02-17T00:45:57.127Z,99.29
2019-02-17T00:47:07.137Z,99.29
2019-02-17T00:48:17.184Z,99.29
2019-02-17T00:49:27.293Z,99.29
2019-02-17T00:50:37.094Z,99.29
2019-02-17T00:51:47.156Z,99.29
2019-02-17T00:52:57.265Z,99.29
2019-02-17T00:54:07.334Z,99.29
2019-02-17T00:55:17.387Z,99.39
2019-02-17T00:56:27.456Z,99.29
2019-02-17T00:57:37.548Z,98.91
2019-02-17T00:58:47.659Z,99.29
2019-02-17T00:59:57.774Z,99.48
2019-02-17T01:01:10.798Z,99.29
2019-02-17T01:02:20.846Z,99.1
2019-02-17T01:03:30.896Z,99.2
2019-02-17T01:04:40.952Z,99.29
2019-02-17T01:05:51.053Z,99.29
2019-02-17T01:07:03.800Z,99.48
2019-02-17T01:08:13.851Z,99.29
2019-02-17T01:09:23.903Z,99.29
2019-02-17T01:10:33.699Z,99.48
2019-02-17T01:11:43.765Z,99.1
2019-02-17T01:12:53.867Z,99.48
2019-02-17T01:14:06.269Z,98.91
2019-02-17T01:15:16.315Z,99.1
2019-02-17T01:16:27.514Z,98.91
2019-02-17T01:17:37.160Z,98.82
2019-02-17T01:18:46.975Z,99.1
2019-02-17T01:19:57.514Z,98.82
2019-02-17T01:21:07.571Z,99.1
2019-02-17T01:22:18.318Z,99.2
2019-02-17T01:23:28.402Z,98.91
2019-02-17T01:24:38.547Z,99.01
2019-02-17T01:25:48.359Z,98.91
2019-02-17T01:26:58.523Z,99.01
2019-02-17T01:28:11.343Z,99.01
2019-02-17T01:29:23.284Z,99.1
2019-02-17T01:30:33.492Z,99.01
2019-02-17T01:31:43.562Z,99.29
2019-02-17T01:32:53.620Z,98.91
2019-02-17T01:34:03.688Z,98.91
2019-02-17T01:35:13.929Z,98.91
2019-02-17T01:36:23.979Z,99.1
2019-02-17T01:37:34.084Z,99.1
2019-02-17T01:38:43.724Z,98.91
2019-02-17T01:39:53.546Z,99.39
2019-02-17T01:41:03.636Z,98.82
2019-02-17T01:42:13.703Z,98.91
2019-02-17T01:43:23.753Z,98.91
2019-02-17T01:44:33.814Z,98.82
2019-02-17T01:45:43.855Z,98.91
2019-02-17T01:46:53.902Z,99.39
2019-02-17T01:48:03.948Z,98.82
2019-02-17T01:49:14.005Z,99.39
2019-02-17T01:50:23.560Z,99.05
2019-02-17T01:51:33.089Z,99.43
2019-02-17T01:52:42.897Z,99.1
2019-02-17T01:53:52.956Z,98.72
2019-02-17T01:55:03.058Z,98.72
2019-02-17T01:56:12.600Z,98.77
2019-02-17T01:57:22.792Z,99.1
2019-02-17T01:58:32.844Z,98.91
2019-02-17T01:59:42.668Z,98.96
2019-02-17T02:00:52.714Z,99.05
2019-02-17T02:02:02.762Z,99.05
2019-02-17T02:03:12.827Z,99.05
2019-02-17T02:04:22.876Z,98.77
2019-02-17T02:05:32.927Z,98.77
2019-02-17T02:06:43.069Z,99.05
2019-02-17T02:07:52.621Z,98.96
2019-02-17T02:09:05.271Z,99.15
2019-02-17T02:10:15.326Z,99.15
2019-02-17T02:11:25.437Z,99.33
2019-02-17T02:12:35.516Z,99.33
2019-02-17T02:13:45.551Z,99.05
2019-02-17T02:14:55.594Z,98.96
2019-02-17T02:16:06.664Z,99.05
2019-02-17T02:17:16.806Z,99.33
2019-02-17T02:18:26.611Z,99.43
2019-02-17T02:19:36.777Z,99.24
2019-02-17T02:20:46.841Z,99.05
2019-02-17T02:21:56.935Z,99.15
2019-02-17T02:23:06.791Z,98.96
2019-02-17T02:24:17.037Z,98.96
2019-02-17T02:25:27.101Z,98.96
2019-02-17T02:26:37.151Z,99.05
2019-02-17T02:27:47.356Z,99.33
2019-02-17T02:28:57.472Z,99.15
2019-02-17T02:30:08.544Z,99.24
2019-02-17T02:31:18.370Z,99.24
2019-02-17T02:32:28.449Z,99.05
2019-02-17T02:33:38.281Z,99.05
2019-02-17T02:34:49.408Z,99.15
2019-02-17T02:35:59.487Z,99.05
2019-02-17T02:37:09.606Z,99.15
2019-02-17T02:38:19.764Z,99.33
2019-02-17T02:39:29.838Z,99.05
2019-02-17T02:40:39.895Z,98.96
2019-02-17T02:41:49.949Z,99.15
2019-02-17T02:43:00.005Z,98.96
2019-02-17T02:44:10.014Z,98.96
2019-02-17T02:45:19.860Z,99.05
2019-02-17T02:46:29.750Z,99.15
2019-02-17T02:47:39.839Z,99.15
2019-02-17T02:48:50.101Z,99.43
2019-02-17T02:50:00.963Z,99.05
2019-02-17T02:51:11.051Z,99.15
2019-02-17T02:52:21.126Z,99.15
2019-02-17T02:53:31.204Z,99.15
2019-02-17T02:54:41.501Z,98.86
2019-02-17T02:55:51.575Z,99.05
2019-02-17T02:57:01.620Z,99.05
2019-02-17T02:58:11.681Z,99.05
2019-02-17T02:59:21.763Z,99.05
2019-02-17T03:00:31.580Z,98.96
2019-02-17T03:01:41.681Z,99.15
2019-02-17T03:33:53.100Z,92.57
2019-02-17T03:35:05.927Z,93.13
2019-02-17T03:36:16.044Z,94.08
2019-02-17T03:37:26.102Z,95.03
2019-02-17T03:38:35.879Z,96.07
2019-02-17T03:39:45.667Z,96.26
2019-02-17T03:40:55.760Z,97.77
2019-02-17T03:42:05.558Z,97.67
2019-02-17T03:43:15.602Z,98.24
2019-02-17T03:44:25.653Z,98.62
2019-02-17T03:45:36.056Z,98.62
2019-02-17T03:46:46.991Z,98.9
2019-02-17T03:47:56.793Z,98.81
2019-02-17T03:49:08.286Z,98.9
2019-02-17T03:50:18.425Z,98.58
2019-02-17T03:51:28.636Z,98.86
2019-02-17T03:52:38.928Z,98.96
2019-02-17T03:53:49.096Z,99.05
2019-02-17T03:54:59.208Z,99.15
2019-02-17T03:56:10.879Z,98.86
2019-02-17T03:57:20.734Z,98.77
2019-02-17T03:58:30.783Z,98.86
2019-02-17T03:59:40.805Z,99.05
2019-02-17T04:00:50.850Z,98.91
2019-02-17T04:02:00.949Z,99.01
2019-02-17T04:03:11.229Z,99.38
2019-02-17T04:04:21.279Z,99.01
2019-02-17T04:05:31.337Z,99.38
2019-02-17T04:06:41.384Z,99.19
2019-02-17T04:07:51.549Z,99.1
2019-02-17T04:09:03.600Z,99.01
2019-02-17T04:10:13.650Z,99.01
2019-02-17T04:11:23.705Z,99.19
2019-02-17T04:12:33.508Z,99.29
2019-02-17T04:13:43.570Z,99.19
2019-02-17T04:14:53.686Z,99.19
2019-02-17T04:16:04.051Z,99.19
2019-02-17T04:17:14.105Z,99.01
2019-02-17T04:18:24.170Z,99.1
2019-02-17T04:19:33.972Z,99.01
2019-02-17T04:20:44.307Z,99.01
2019-02-17T04:21:54.414Z,99.01
2019-02-17T04:23:04.483Z,99.01
2019-02-17T04:24:14.636Z,98.82
2019-02-17T04:25:24.675Z,99.1
2019-02-17T04:26:34.755Z,98.72
2019-02-17T04:27:45.042Z,99.1
2019-02-17T04:28:54.873Z,99.29
2019-02-17T04:30:06.138Z,98.72
2019-02-17T04:31:16.307Z,99.29
2019-02-17T04:32:26.386Z,99.19
2019-02-17T04:33:36.435Z,99.01
2019-02-17T04:34:46.250Z,98.91
2019-02-17T04:35:56.398Z,98.91
2019-02-17T04:37:06.460Z,99.01
2019-02-17T04:38:16.515Z,98.82
2019-02-17T04:39:26.572Z,98.72
2019-02-17T04:40:36.608Z,98.63
2019-02-17T04:41:46.650Z,98.72
2019-02-17T04:42:57.011Z,98.91
2019-02-17T04:44:07.123Z,98.53
2019-02-17T04:45:17.188Z,98.63
2019-02-17T04:46:27.301Z,98.53
2019-02-17T04:47:37.352Z,98.53
2019-02-17T04:48:47.781Z,98.91
2019-02-17T04:49:57.596Z,98.72
2019-02-17T04:51:07.634Z,98.63
2019-02-17T04:52:17.680Z,98.63
2019-02-17T04:53:27.467Z,98.72
2019-02-17T04:54:37.500Z,98.72
2019-02-17T04:55:48.339Z,98.82
2019-02-17T04:56:58.139Z,98.63
2019-02-17T04:58:10.982Z,98.63
2019-02-17T04:59:21.309Z,98.53
2019-02-17T05:00:42.018Z,98.72
2019-02-17T05:01:53.047Z,98.34
2019-02-17T05:03:03.862Z,98.63
2019-02-17T05:04:13.699Z,99.01
2019-02-17T05:05:23.522Z,98.82
2019-02-17T05:06:33.663Z,99.1
2019-02-17T05:07:46.294Z,98.72
2019-02-17T05:08:56.371Z,98.72
2019-02-17T05:10:08.565Z,98.72
2019-02-17T05:11:18.105Z,98.72
2019-02-17T05:12:28.157Z,98.72
2019-02-17T05:13:38.304Z,98.91
2019-02-17T05:14:48.359Z,98.72
2019-02-17T05:15:58.472Z,98.72
2019-02-17T05:17:08.921Z,98.72
2019-02-17T05:18:19.152Z,98.63
2019-02-17T05:19:29.222Z,98.72
2019-02-17T05:20:39.341Z,98.72
2019-02-17T05:21:49.605Z,98.72
2019-02-17T05:22:59.662Z,98.63
2019-02-17T05:24:09.788Z,98.91
2019-02-17T05:25:19.826Z,98.72
2019-02-17T05:26:29.635Z,98.72
2019-02-17T05:27:39.669Z,98.72
2019-02-17T05:28:50.038Z,99.01
2019-02-17T05:30:01.743Z,98.63
2019-02-17T05:31:11.796Z,98.63
2019-02-17T05:32:21.856Z,98.72
2019-02-17T05:33:31.922Z,98.63
2019-02-17T05:34:41.945Z,98.72
2019-02-17T05:35:52.139Z,98.53
2019-02-17T05:37:02.385Z,98.82
2019-02-17T05:38:12.452Z,98.34
2019-02-17T05:39:22.298Z,98.82
2019-02-17T05:40:31.858Z,98.82
2019-02-17T05:41:44.316Z,98.72
2019-02-17T05:42:54.378Z,98.63
2019-02-17T05:44:04.459Z,98.63
2019-02-17T05:45:14.558Z,98.72
2019-02-17T05:46:24.389Z,98.44
2019-02-17T05:47:34.448Z,98.63
2019-02-17T05:48:44.500Z,98.63
2019-02-17T05:49:54.556Z,98.72
2019-02-17T05:51:04.614Z,98.63
2019-02-17T05:52:14.686Z,98.53
2019-02-17T05:53:24.834Z,98.72
2019-02-17T05:54:34.982Z,98.82
2019-02-17T05:55:44.910Z,98.53
2019-02-17T05:56:54.715Z,98.82
2019-02-17T05:58:04.804Z,98.72
2019-02-17T05:59:14.981Z,98.25
2019-02-17T06:00:25.037Z,98.34
2019-02-17T06:01:34.850Z,98.25
2019-02-17T06:02:44.910Z,98.06
2019-02-17T06:03:54.695Z,98.15
2019-02-17T06:05:05.131Z,98.25
2019-02-17T06:06:17.376Z,98.25
2019-02-17T06:07:27.818Z,98.25
2019-02-17T06:08:37.875Z,98.06
2019-02-17T06:09:47.672Z,97.96
2019-02-17T06:10:57.728Z,98.06
2019-02-17T06:12:07.296Z,98.15
2019-02-17T06:13:17.364Z,98.34
2019-02-17T06:14:27.455Z,98.06
2019-02-17T06:15:37.507Z,98.15
2019-02-17T06:16:47.579Z,98.15
2019-02-17T06:17:57.637Z,98.34
2019-02-17T06:19:07.716Z,98.25
2019-02-17T06:20:17.506Z,98.44
2019-02-17T06:21:27.339Z,98.44
2019-02-17T06:22:37.441Z,98.34
2019-02-17T06:23:47.212Z,98.53
2019-02-17T06:24:57.030Z,98.44
2019-02-17T06:26:06.861Z,98.63
2019-02-17T06:27:16.769Z,98.15
2019-02-17T06:28:26.813Z,97.87
2019-02-17T06:29:36.959Z,98.15
2019-02-17T06:30:47.006Z,98.06
2019-02-17T06:31:56.536Z,97.87
2019-02-17T06:33:06.667Z,98.39
2019-02-17T06:34:16.221Z,98.01
2019-02-17T06:35:25.752Z,97.92
2019-02-17T06:36:35.822Z,97.92
2019-02-17T06:37:48.552Z,97.92
2019-02-17T06:38:58.835Z,97.73
2019-02-17T06:40:08.908Z,97.73
2019-02-17T06:41:18.990Z,97.82
2019-02-17T06:42:29.030Z,97.82
2019-02-17T06:43:39.097Z,97.73
2019-02-17T06:44:49.464Z,97.82
2019-02-17T06:45:59.844Z,97.63
2019-02-17T06:47:09.904Z,97.82
2019-02-17T06:48:19.968Z,97.63
2019-02-17T06:49:30.045Z,97.82
2019-02-17T06:50:40.098Z,97.63
2019-02-17T06:51:50.305Z,97.78
2019-02-17T06:53:01.853Z,97.78
2019-02-17T06:54:11.904Z,97.78
2019-02-17T06:55:21.195Z,97.59
2019-02-17T06:56:31.258Z,97.87
2019-02-17T06:57:41.332Z,97.87
2019-02-17T06:58:51.119Z,97.59
2019-02-17T07:00:01.883Z,97.59
2019-02-17T07:01:12.014Z,97.87
2019-02-17T07:02:32.036Z,97.59
2019-02-17T07:03:42.150Z,97.78
2019-02-17T07:04:52.349Z,97.87
2019-02-17T07:06:02.097Z,97.78
2019-02-17T07:07:12.249Z,97.78
2019-02-17T07:08:22.424Z,97.4
2019-02-17T07:09:32.642Z,97.54
2019-02-17T07:10:42.440Z,97.83
2019-02-17T07:11:52.533Z,97.26
2019-02-17T07:13:04.626Z,97.45
2019-02-17T07:14:14.435Z,97.54
2019-02-17T07:15:24.233Z,97.16
2019-02-17T07:16:34.037Z,97.54
2019-02-17T07:17:44.099Z,97.16
2019-02-17T07:18:54.194Z,97.54
2019-02-17T07:20:04.245Z,97.26
2019-02-17T07:21:15.147Z,97.26
2019-02-17T07:22:25.223Z,97.4
2019-02-17T07:23:35.292Z,97.5
2019-02-17T07:24:45.355Z,97.21
2019-02-17T07:25:55.456Z,97.4
2019-02-17T07:27:05.993Z,97.5
2019-02-17T07:28:15.775Z,97.69
2019-02-17T07:29:25.920Z,97.4
2019-02-17T07:30:35.725Z,97.59
2019-02-17T07:31:45.774Z,97.59
2019-02-17T07:32:55.869Z,97.36
2019-02-17T07:34:05.666Z,97.83
2019-02-17T07:35:15.841Z,97.92
2019-02-17T07:36:25.902Z,97.92
2019-02-17T07:37:36.489Z,97.92
2019-02-17T07:38:46.555Z,97.64
2019-02-17T07:39:56.594Z,97.55
2019-02-17T07:41:07.543Z,97.45
2019-02-17T07:42:17.610Z,97.55
2019-02-17T07:43:27.732Z,97.64
2019-02-17T07:44:37.810Z,98.21
2019-02-17T07:45:48.272Z,98.02
2019-02-17T07:46:58.320Z,97.88
2019-02-17T07:48:08.130Z,97.78
2019-02-17T07:49:17.955Z,98.26
2019-02-17T07:50:27.773Z,98.16
2019-02-17T07:51:37.590Z,97.97
2019-02-17T07:52:47.391Z,98.07
2019-02-17T07:53:57.193Z,97.88
2019-02-17T07:55:07.331Z,97.97
2019-02-17T07:56:17.438Z,98.07
2019-02-17T07:57:27.723Z,98.07
2019-02-17T07:58:37.572Z,98.12
2019-02-17T07:59:47.689Z,98.12
2019-02-17T08:00:57.798Z,97.92
2019-02-17T08:02:09.968Z,97.92
2019-02-17T08:03:20.032Z,97.83
2019-02-17T08:04:30.084Z,98.12
2019-02-17T08:05:39.919Z,98.12
2019-02-17T08:06:50.057Z,98.12
2019-02-17T08:08:00.383Z,98.17
2019-02-17T08:09:10.431Z,97.97
2019-02-17T08:10:20.504Z,98.26
2019-02-17T08:11:30.581Z,97.88
2019-02-17T08:12:40.428Z,98.07
2019-02-17T08:13:49.966Z,98.17
2019-02-17T08:14:59.777Z,97.97
2019-02-17T08:16:10.339Z,97.88
2019-02-17T08:17:20.241Z,98.12
2019-02-17T08:18:30.270Z,98.22
2019-02-17T08:19:40.163Z,98.03
2019-02-17T08:20:50.238Z,98.12
2019-02-17T08:22:02.281Z,98.6
2019-02-17T08:23:12.365Z,98.41
2019-02-17T08:24:22.423Z,98.31
2019-02-17T08:25:32.233Z,98.17
2019-02-17T08:26:42.058Z,98.36
2019-02-17T08:27:52.088Z,98.46
2019-02-17T08:29:02.546Z,98.65
2019-02-17T08:30:12.604Z,98.36
2019-02-17T08:31:22.676Z,98.08
2019-02-17T08:32:32.468Z,98.36
2019-02-17T08:33:42.731Z,98.17
2019-02-17T08:34:53.206Z,98.36
2019-02-17T08:36:05.106Z,98.17
2019-02-17T08:37:14.887Z,98.6
2019-02-17T08:38:25.045Z,98.41
2019-02-17T08:39:35.185Z,98.41
2019-02-17T08:40:45.250Z,98.5
2019-02-17T08:41:55.295Z,98.79
2019-02-17T08:43:05.364Z,98.69
2019-02-17T08:44:15.488Z,98.5
2019-02-17T08:45:25.547Z,98.41
2019-02-17T08:46:35.398Z,98.69
2019-02-17T08:47:48.035Z,98.98
2019-02-17T08:48:58.171Z,98.36
2019-02-17T08:50:08.278Z,99.13
2019-02-17T08:51:18.386Z,98.74
2019-02-17T08:52:28.447Z,99.22
2019-02-17T08:53:38.358Z,98.94
2019-02-17T08:54:48.436Z,99.03
2019-02-17T08:55:58.551Z,98.55
2019-02-17T08:57:08.612Z,98.74
2019-02-17T08:58:18.677Z,98.7
2019-02-17T08:59:29.005Z,98.7
2019-02-17T09:00:39.115Z,98.41
2019-02-17T09:01:49.203Z,99.18
2019-02-17T09:03:08.611Z,98.89
2019-02-17T09:04:18.426Z,98.99
2019-02-17T09:05:28.527Z,98.89
2019-02-17T09:06:49.089Z,98.79
2019-02-17T09:07:59.322Z,98.32
2019-02-17T09:09:11.758Z,99.22
2019-02-17T09:10:22.133Z,99.04
2019-02-17T09:11:32.197Z,99.04
2019-02-17T09:12:42.262Z,99.41
2019-02-17T09:13:52.317Z,98.85
2019-02-17T09:15:02.369Z,98.75
2019-02-17T09:16:12.444Z,98.27
2019-02-17T09:17:22.511Z,99.41
2019-02-17T09:18:32.687Z,99.13
2019-02-17T09:19:42.777Z,99.13
2019-02-17T09:20:52.869Z,99.18
2019-02-17T09:22:03.252Z,99.08
2019-02-17T09:23:13.377Z,99.18
2019-02-17T09:24:23.673Z,99.37
2019-02-17T09:25:33.725Z,99.27
2019-02-17T09:26:44.078Z,99.37
2019-02-17T09:27:53.622Z,99.27
2019-02-17T09:29:03.708Z,99.18
2019-02-17T09:30:13.796Z,99.18
2019-02-17T09:31:23.613Z,99.08
2019-02-17T09:32:33.186Z,99.37
2019-02-17T09:33:43.345Z,99.18
2019-02-17T09:34:53.405Z,98.99
2019-02-17T09:36:04.848Z,98.9
2019-02-17T09:37:14.932Z,99.04
2019-02-17T09:38:24.998Z,99.23
2019-02-17T09:39:35.108Z,99.04
2019-02-17T09:40:45.151Z,99.13
2019-02-17T09:41:55.220Z,99.32
2019-02-17T09:43:05.268Z,99.13
2019-02-17T09:44:15.062Z,99.23
2019-02-17T09:45:24.920Z,98.75
2019-02-17T09:46:34.999Z,99.13
2019-02-17T09:47:45.302Z,99.04
2019-02-17T09:48:55.862Z,99.13
2019-02-17T09:50:08.293Z,99.13
2019-02-17T09:51:18.353Z,99.04
2019-02-17T09:52:28.185Z,99.13
2019-02-17T09:53:38.248Z,99.04
2019-02-17T09:54:48.322Z,98.94
2019-02-17T09:55:58.412Z,98.37
2019-02-17T09:57:10.099Z,98.85
2019-02-17T09:58:20.178Z,99.32
2019-02-17T09:59:30.229Z,99.37
2019-02-17T10:00:40.299Z,99.08
2019-02-17T10:01:50.544Z,98.9
2019-02-17T10:03:00.351Z,98.8
2019-02-17T10:04:10.453Z,98.52
2019-02-17T10:05:20.514Z,98.99
2019-02-17T10:06:30.094Z,99.57
2019-02-17T10:07:40.258Z,99.08
2019-02-17T10:08:50.454Z,99.57
2019-02-17T10:10:01.078Z,99.18
2019-02-17T10:11:11.141Z,99.37
2019-02-17T10:12:21.315Z,98.9
2019-02-17T10:13:30.863Z,99.37
2019-02-17T10:14:40.918Z,98.99
2019-02-17T10:15:50.997Z,99.08
2019-02-17T10:17:01.153Z,99.08
2019-02-17T10:18:11.260Z,99.08
2019-02-17T10:19:21.525Z,99.43
2019-02-17T10:20:31.381Z,99.33
2019-02-17T10:21:41.495Z,99.14
2019-02-17T10:22:51.565Z,99.14
2019-02-17T10:24:01.373Z,99.43
2019-02-17T10:25:11.482Z,99.14
2019-02-17T10:26:21.293Z,99.33
2019-02-17T10:27:31.127Z,99.33
2019-02-17T10:28:44.939Z,99.33
